createdAt,value
2023-11-15T00:00:20.482Z,96.70
2023-11-15T00:01:20.502Z,96.81
2023-11-15T00:02:20.525Z,96.70
2023-11-15T00:03:20.639Z,96.81
2023-11-15T00:04:20.523Z,96.81
2023-11-15T00:05:20.517Z,96.85
2023-11-15T00:06:20.510Z,96.70
2023-11-15T00:07:20.408Z,96.81
2023-11-15T00:08:20.468Z,96.70
2023-11-15T00:09:20.390Z,96.91
2023-11-15T00:10:20.392Z,96.81
2023-11-15T00:11:20.455Z,96.91
2023-11-15T00:12:20.370Z,96.30
2023-11-15T00:13:20.360Z,96.19
2023-11-15T00:14:20.406Z,96.70
2023-11-15T00:15:20.353Z,96.91
2023-11-15T00:16:20.339Z,96.70
2023-11-15T00:17:20.405Z,96.70
2023-11-15T00:18:20.415Z,96.81
2023-11-15T00:19:20.302Z,96.60
2023-11-15T00:20:20.409Z,96.91
2023-11-15T00:21:20.260Z,96.30
2023-11-15T00:22:20.238Z,96.70
2023-11-15T00:23:20.330Z,96.91
2023-11-15T00:24:20.228Z,96.91
2023-11-15T00:25:20.213Z,96.30
2023-11-15T00:26:20.237Z,96.70
2023-11-15T00:27:20.257Z,96.81
2023-11-15T00:28:20.181Z,96.91
2023-11-15T00:29:20.205Z,96.30
2023-11-15T00:30:20.272Z,96.70
2023-11-15T00:31:20.161Z,96.25
2023-11-15T00:32:20.177Z,96.70
2023-11-15T00:33:20.201Z,96.81
2023-11-15T00:34:20.161Z,96.91
2023-11-15T00:35:20.164Z,96.66
2023-11-15T00:36:20.152Z,96.81
2023-11-15T00:37:20.075Z,96.40
2023-11-15T00:38:20.123Z,96.77
2023-11-15T00:39:20.062Z,96.40
2023-11-15T00:40:20.042Z,96.25
2023-11-15T00:41:20.060Z,96.77
2023-11-15T00:42:20.009Z,96.66
2023-11-15T00:43:20.122Z,96.45
2023-11-15T00:44:20.110Z,96.45
2023-11-15T00:45:19.996Z,96.87
2023-11-15T00:46:20.144Z,96.45
2023-11-15T00:47:20.033Z,96.70
2023-11-15T00:48:20.071Z,96.45
2023-11-15T00:49:19.960Z,96.50
2023-11-15T00:50:20.074Z,96.25
2023-11-15T00:51:19.916Z,96.45
2023-11-15T00:52:19.922Z,96.45
2023-11-15T00:53:19.947Z,96.66
2023-11-15T00:54:19.877Z,96.45
2023-11-15T00:55:19.912Z,96.45
2023-11-15T00:56:19.893Z,96.25
2023-11-15T00:57:19.864Z,96.66
2023-11-15T00:58:19.834Z,96.35
2023-11-15T00:59:19.865Z,96.35
2023-11-15T01:00:19.812Z,96.66
2023-11-15T01:01:19.840Z,96.25
2023-11-15T01:02:20.131Z,96.45
2023-11-15T01:03:19.868Z,96.66
2023-11-15T01:04:19.850Z,96.45
2023-11-15T01:05:19.794Z,96.45
2023-11-15T01:06:19.791Z,96.66
2023-11-15T01:07:19.787Z,96.87
2023-11-15T01:08:20.523Z,96.25
2023-11-15T01:09:19.731Z,96.25
2023-11-15T01:10:19.707Z,96.35
2023-11-15T01:11:19.763Z,96.35
2023-11-15T01:12:19.750Z,96.45
2023-11-15T01:13:19.663Z,96.45
2023-11-15T01:14:19.761Z,96.66
2023-11-15T01:15:19.643Z,96.45
2023-11-15T01:16:19.689Z,96.04
2023-11-15T01:17:19.653Z,96.66
2023-11-15T01:18:19.743Z,96.20
2023-11-15T01:19:19.605Z,96.25
2023-11-15T01:20:19.654Z,96.45
2023-11-15T01:21:19.618Z,96.66
2023-11-15T01:22:19.558Z,96.45
2023-11-15T01:23:19.577Z,96.25
2023-11-15T01:24:19.542Z,96.35
2023-11-15T01:25:19.572Z,96.45
2023-11-15T01:26:19.559Z,96.45
2023-11-15T01:27:19.538Z,96.35
2023-11-15T01:28:19.499Z,96.87
2023-11-15T01:29:19.481Z,96.66
2023-11-15T01:30:19.477Z,96.66
2023-11-15T01:31:19.464Z,96.41
2023-11-15T01:32:19.482Z,96.35
2023-11-15T01:33:19.551Z,96.87
2023-11-15T01:34:19.550Z,96.41
2023-11-15T01:35:19.583Z,96.66
2023-11-15T01:36:19.427Z,96.04
2023-11-15T01:37:19.407Z,96.66
2023-11-15T01:38:19.403Z,96.66
2023-11-15T01:39:19.422Z,96.45
2023-11-15T01:40:19.367Z,96.25
2023-11-15T01:41:19.385Z,96.45
2023-11-15T01:42:19.358Z,96.45
2023-11-15T01:43:19.334Z,96.66
2023-11-15T01:44:19.431Z,96.45
2023-11-15T01:45:19.324Z,96.25
2023-11-15T01:46:19.341Z,96.45
2023-11-15T01:47:19.340Z,96.66
2023-11-15T01:48:19.428Z,96.45
2023-11-15T01:49:19.403Z,96.15
2023-11-15T01:50:19.419Z,96.35
2023-11-15T01:51:19.237Z,96.35
2023-11-15T01:52:19.228Z,96.25
2023-11-15T01:53:19.410Z,96.45
2023-11-15T01:54:19.203Z,96.66
2023-11-15T01:55:19.209Z,96.87
2023-11-15T01:56:19.204Z,96.66
2023-11-15T01:57:19.168Z,96.31
2023-11-15T01:58:19.259Z,96.25
2023-11-15T01:59:19.196Z,96.10
2023-11-15T02:00:19.137Z,96.35
2023-11-15T02:01:19.164Z,96.15
2023-11-15T02:02:19.242Z,96.35
2023-11-15T02:03:19.666Z,96.04
2023-11-15T02:04:19.150Z,96.66
2023-11-15T02:05:19.205Z,96.72
2023-11-15T02:06:19.192Z,96.15
2023-11-15T02:07:19.227Z,96.35
2023-11-15T02:08:19.036Z,96.62
2023-11-15T02:09:19.032Z,96.66
2023-11-15T02:10:19.023Z,96.04
2023-11-15T02:11:19.032Z,96.82
2023-11-15T02:12:19.068Z,96.82
2023-11-15T02:13:19.012Z,96.20
2023-11-15T02:14:18.969Z,96.72
2023-11-15T02:15:18.982Z,96.77
2023-11-15T02:16:19.000Z,96.77
2023-11-15T02:17:19.518Z,96.62
2023-11-15T02:18:19.054Z,96.82
2023-11-15T02:19:18.977Z,96.87
2023-11-15T02:20:18.921Z,96.62
2023-11-15T02:21:19.314Z,96.72
2023-11-15T02:22:18.896Z,96.72
2023-11-15T02:23:18.868Z,96.72
2023-11-15T02:24:18.884Z,96.87
2023-11-15T02:25:18.964Z,96.97
2023-11-15T02:26:18.853Z,96.82
2023-11-15T02:27:18.823Z,96.82
2023-11-15T02:28:18.824Z,96.72
2023-11-15T02:29:18.814Z,96.82
2023-11-15T02:30:18.834Z,96.82
2023-11-15T02:31:18.941Z,96.87
2023-11-15T02:32:18.781Z,96.92
2023-11-15T02:33:18.947Z,96.92
2023-11-15T02:34:18.753Z,96.87
2023-11-15T02:35:18.781Z,96.97
2023-11-15T02:36:18.738Z,96.87
2023-11-15T02:37:18.759Z,96.87
2023-11-15T02:38:18.733Z,97.03
2023-11-15T02:39:18.709Z,96.82
2023-11-15T02:40:18.720Z,96.87
2023-11-15T02:41:18.696Z,96.82
2023-11-15T02:42:18.655Z,96.97
2023-11-15T02:43:18.649Z,96.82
2023-11-15T02:44:18.663Z,96.87
2023-11-15T02:45:18.643Z,96.97
2023-11-15T02:46:18.647Z,96.87
2023-11-15T02:47:18.636Z,96.82
2023-11-15T02:48:18.645Z,96.87
2023-11-15T02:49:18.636Z,96.97
2023-11-15T02:50:18.573Z,96.97
2023-11-15T02:51:18.553Z,96.97
2023-11-15T02:52:18.541Z,96.87
2023-11-15T02:53:18.571Z,96.97
2023-11-15T02:54:18.547Z,96.97
2023-11-15T02:55:18.512Z,96.97
2023-11-15T02:56:18.495Z,96.82
2023-11-15T02:57:18.489Z,96.87
2023-11-15T02:58:18.487Z,96.82
2023-11-15T02:59:18.502Z,96.97
2023-11-15T03:00:18.455Z,96.82
2023-11-15T03:01:18.475Z,96.97
2023-11-15T03:02:18.434Z,96.87
2023-11-15T03:03:18.612Z,96.92
2023-11-15T03:04:18.483Z,96.87
2023-11-15T03:05:18.457Z,96.77
2023-11-15T03:06:18.459Z,96.87
2023-11-15T03:07:18.376Z,96.87
2023-11-15T03:08:18.382Z,96.97
2023-11-15T03:09:18.351Z,96.92
2023-11-15T03:10:18.366Z,96.97
2023-11-15T03:11:18.344Z,96.97
2023-11-15T03:12:18.333Z,96.82
2023-11-15T03:13:18.332Z,96.72
2023-11-15T03:14:18.304Z,96.72
2023-11-15T03:15:18.300Z,96.82
2023-11-15T03:16:18.314Z,96.82
2023-11-15T03:17:18.513Z,96.82
2023-11-15T03:18:18.342Z,96.72
2023-11-15T03:19:18.242Z,96.72
2023-11-15T03:20:18.272Z,96.87
2023-11-15T03:21:18.204Z,96.87
2023-11-15T03:22:18.237Z,96.87
2023-11-15T03:23:18.207Z,96.77
2023-11-15T03:24:18.195Z,96.97
2023-11-15T03:25:18.181Z,96.92
2023-11-15T03:26:18.287Z,96.92
2023-11-15T03:27:18.152Z,96.97
2023-11-15T03:28:18.151Z,96.97
2023-11-15T03:29:18.111Z,96.77
2023-11-15T03:30:18.103Z,96.97
2023-11-15T03:31:18.111Z,97.07
2023-11-15T03:32:18.183Z,96.77
2023-11-15T03:33:18.188Z,96.87
2023-11-15T03:34:18.081Z,96.77
2023-11-15T03:35:18.040Z,96.97
2023-11-15T03:36:18.058Z,96.87
2023-11-15T03:37:18.038Z,96.77
2023-11-15T03:38:18.011Z,96.77
2023-11-15T03:39:18.001Z,96.97
2023-11-15T03:40:18.032Z,96.97
2023-11-15T03:41:17.992Z,96.97
2023-11-15T03:42:18.082Z,96.87
2023-11-15T03:43:17.957Z,96.97
2023-11-15T03:44:17.960Z,96.97
2023-11-15T03:45:17.942Z,97.07
2023-11-15T03:46:18.008Z,96.87
2023-11-15T03:47:17.939Z,96.87
2023-11-15T03:48:17.989Z,96.97
2023-11-15T03:49:17.887Z,96.97
2023-11-15T03:50:17.901Z,96.87
2023-11-15T03:51:17.860Z,96.87
2023-11-15T03:52:17.882Z,96.97
2023-11-15T03:53:17.865Z,96.77
2023-11-15T03:54:17.844Z,96.87
2023-11-15T03:55:17.873Z,96.87
2023-11-15T03:56:17.834Z,96.87
2023-11-15T03:57:17.795Z,97.02
2023-11-15T03:58:17.814Z,96.81
2023-11-15T03:59:17.783Z,96.77
2023-11-15T04:00:17.760Z,96.97
2023-11-15T04:01:17.743Z,96.91
2023-11-15T04:02:17.753Z,96.66
2023-11-15T04:03:20.622Z,96.66
2023-11-15T04:04:17.898Z,96.77
2023-11-15T04:05:17.889Z,96.91
2023-11-15T04:06:17.712Z,96.66
2023-11-15T04:07:17.682Z,96.66
2023-11-15T04:08:17.685Z,96.81
2023-11-15T04:09:17.694Z,96.87
2023-11-15T04:10:17.655Z,96.66
2023-11-15T04:11:17.647Z,96.87
2023-11-15T04:12:17.624Z,96.87
2023-11-15T04:13:17.629Z,96.91
2023-11-15T04:14:17.617Z,96.70
2023-11-15T04:15:17.592Z,96.87
2023-11-15T04:16:17.610Z,96.91
2023-11-15T04:17:17.572Z,96.81
2023-11-15T04:18:17.663Z,96.70
2023-11-15T04:19:17.547Z,96.70
2023-11-15T04:20:17.558Z,96.70
2023-11-15T04:21:17.529Z,96.81
2023-11-15T04:22:17.592Z,96.81
2023-11-15T04:23:17.540Z,96.70
2023-11-15T04:24:17.495Z,96.70
2023-11-15T04:25:17.483Z,96.81
2023-11-15T04:26:17.466Z,96.70
2023-11-15T04:27:17.472Z,96.30
2023-11-15T04:28:17.484Z,96.91
2023-11-15T04:29:17.436Z,96.81
2023-11-15T04:30:17.458Z,96.70
2023-11-15T04:31:17.539Z,96.70
2023-11-15T04:32:17.426Z,96.91
2023-11-15T04:33:17.409Z,96.91
2023-11-15T04:34:17.402Z,96.81
2023-11-15T04:35:17.369Z,96.70
2023-11-15T04:36:17.363Z,96.70
2023-11-15T04:37:17.364Z,96.70
2023-11-15T04:38:17.332Z,96.70
2023-11-15T04:39:17.326Z,96.30
2023-11-15T04:40:17.340Z,96.70
2023-11-15T04:41:17.314Z,96.91
2023-11-15T04:42:17.311Z,96.91
2023-11-15T04:43:17.275Z,96.91
2023-11-15T04:44:17.263Z,96.70
2023-11-15T04:45:17.275Z,96.70
2023-11-15T04:46:17.348Z,96.70
2023-11-15T04:47:17.229Z,96.70
2023-11-15T04:48:17.291Z,96.70
2023-11-15T04:49:17.216Z,96.70
2023-11-15T04:50:17.229Z,96.91
2023-11-15T04:51:17.215Z,96.70
2023-11-15T04:52:17.217Z,96.81
2023-11-15T04:53:17.164Z,96.91
2023-11-15T04:54:17.159Z,96.70
2023-11-15T04:55:17.156Z,96.70
2023-11-15T04:56:17.140Z,96.81
2023-11-15T04:57:17.181Z,96.70
2023-11-15T04:58:17.105Z,96.81
2023-11-15T04:59:17.112Z,96.81
2023-11-15T05:00:17.120Z,96.70
2023-11-15T05:01:17.092Z,96.70
2023-11-15T05:02:17.081Z,96.77
2023-11-15T05:03:17.185Z,96.81
2023-11-15T05:04:17.537Z,96.81
2023-11-15T05:05:17.043Z,96.81
2023-11-15T05:06:17.022Z,97.02
2023-11-15T05:07:17.007Z,96.91
2023-11-15T05:08:17.005Z,96.91
2023-11-15T05:09:17.059Z,97.02
2023-11-15T05:10:16.973Z,96.81
2023-11-15T05:11:16.981Z,96.81
2023-11-15T05:12:16.999Z,97.02
2023-11-15T05:13:16.940Z,96.81
2023-11-15T05:14:16.948Z,97.02
2023-11-15T05:15:16.959Z,96.87
2023-11-15T05:16:16.940Z,97.02
2023-11-15T05:17:16.920Z,97.02
2023-11-15T05:18:17.013Z,96.81
2023-11-15T05:19:16.882Z,97.02
2023-11-15T05:20:16.874Z,96.91
2023-11-15T05:21:16.841Z,96.91
2023-11-15T05:22:16.837Z,97.02
2023-11-15T05:23:16.868Z,97.02
2023-11-15T05:24:16.878Z,97.12
2023-11-15T05:25:16.801Z,96.81
2023-11-15T05:26:16.798Z,97.02
2023-11-15T05:27:16.776Z,96.97
2023-11-15T05:28:16.802Z,96.91
2023-11-15T05:29:16.753Z,97.02
2023-11-15T05:30:16.772Z,96.81
2023-11-15T05:31:16.785Z,96.91
2023-11-15T05:32:16.735Z,97.12
2023-11-15T05:33:16.770Z,96.81
2023-11-15T05:34:16.733Z,97.02
2023-11-15T05:35:16.687Z,96.91
2023-11-15T05:36:16.678Z,97.02
2023-11-15T05:37:16.682Z,96.81
2023-11-15T05:38:16.660Z,96.91
2023-11-15T05:39:16.639Z,97.02
2023-11-15T05:40:16.706Z,96.81
2023-11-15T05:41:16.626Z,96.91
2023-11-15T05:42:16.638Z,97.02
2023-11-15T05:43:16.591Z,96.91
2023-11-15T05:44:16.581Z,97.12
2023-11-15T05:45:16.586Z,96.81
2023-11-15T05:46:16.621Z,96.81
2023-11-15T05:47:16.586Z,96.81
2023-11-15T05:48:16.635Z,96.91
2023-11-15T05:49:16.533Z,96.91
2023-11-15T05:50:16.529Z,97.02
2023-11-15T05:51:16.516Z,96.81
2023-11-15T05:52:16.504Z,96.81
2023-11-15T05:53:16.503Z,96.91
2023-11-15T05:54:16.478Z,96.81
2023-11-15T05:55:16.451Z,97.02
2023-11-15T05:56:17.472Z,96.81
2023-11-15T05:57:16.521Z,96.81
2023-11-15T05:58:16.429Z,96.81
2023-11-15T05:59:16.415Z,96.81
2023-11-15T06:00:16.448Z,96.91
2023-11-15T06:01:16.410Z,97.02
2023-11-15T06:02:16.406Z,96.81
2023-11-15T06:03:16.506Z,96.91
2023-11-15T06:04:17.129Z,96.91
2023-11-15T06:05:16.368Z,96.81
2023-11-15T06:06:16.357Z,96.81
2023-11-15T06:07:16.331Z,97.02
2023-11-15T06:08:16.369Z,96.91
2023-11-15T06:09:16.339Z,96.81
2023-11-15T06:10:16.325Z,97.02
2023-11-15T06:11:16.297Z,97.02
2023-11-15T06:12:16.270Z,96.81
2023-11-15T06:13:16.264Z,97.12
2023-11-15T06:14:16.275Z,96.70
2023-11-15T06:15:16.314Z,97.02
2023-11-15T06:16:16.257Z,97.12
2023-11-15T06:17:16.216Z,96.81
2023-11-15T06:18:16.286Z,96.81
2023-11-15T06:19:16.190Z,97.12
2023-11-15T06:20:16.199Z,97.02
2023-11-15T06:21:16.161Z,97.12
2023-11-15T06:22:16.270Z,97.02
2023-11-15T06:23:16.156Z,97.02
2023-11-15T06:24:16.167Z,97.02
2023-11-15T06:25:16.121Z,97.02
2023-11-15T06:26:17.017Z,97.02
2023-11-15T06:27:16.088Z,96.81
2023-11-15T06:28:16.100Z,97.02
2023-11-15T06:29:16.070Z,97.02
2023-11-15T06:30:16.158Z,97.12
2023-11-15T06:31:16.048Z,97.02
2023-11-15T06:32:16.067Z,96.91
2023-11-15T06:33:16.200Z,96.91
2023-11-15T06:34:16.087Z,97.02
2023-11-15T06:35:16.027Z,97.06
2023-11-15T06:36:15.989Z,97.02
2023-11-15T06:37:16.001Z,97.02
2023-11-15T06:38:15.999Z,97.02
2023-11-15T06:39:15.959Z,96.91
2023-11-15T06:40:15.951Z,97.02
2023-11-15T06:41:16.223Z,96.91
2023-11-15T06:42:15.953Z,97.02
2023-11-15T06:43:15.919Z,96.91
2023-11-15T06:44:15.903Z,97.06
2023-11-15T06:45:15.964Z,96.81
2023-11-15T06:46:15.904Z,97.02
2023-11-15T06:47:15.880Z,97.02
2023-11-15T06:48:15.993Z,96.91
2023-11-15T06:49:15.848Z,96.91
2023-11-15T06:50:15.834Z,97.06
2023-11-15T06:51:15.840Z,96.81
2023-11-15T06:52:15.820Z,96.95
2023-11-15T06:53:15.800Z,96.95
2023-11-15T06:54:15.816Z,96.70
2023-11-15T06:55:15.773Z,96.81
2023-11-15T06:56:15.825Z,96.81
2023-11-15T06:57:15.767Z,96.81
2023-11-15T06:58:18.068Z,96.81
2023-11-15T06:59:15.729Z,96.81
2023-11-15T07:00:15.794Z,96.91
2023-11-15T07:01:15.737Z,96.81
2023-11-15T07:02:15.708Z,96.81
2023-11-15T07:03:15.855Z,96.91
2023-11-15T07:04:15.711Z,96.70
2023-11-15T07:05:15.686Z,96.70
2023-11-15T07:06:15.688Z,96.81
2023-11-15T07:07:15.637Z,96.81
2023-11-15T07:08:15.627Z,96.81
2023-11-15T07:09:15.613Z,96.81
2023-11-15T07:10:15.652Z,96.95
2023-11-15T07:11:15.606Z,96.91
2023-11-15T07:12:15.614Z,96.91
2023-11-15T07:13:15.586Z,96.91
2023-11-15T07:14:15.565Z,96.91
2023-11-15T07:15:15.807Z,96.91
2023-11-15T07:16:15.595Z,96.70
2023-11-15T07:17:16.514Z,96.91
2023-11-15T07:18:15.544Z,96.81
2023-11-15T07:19:15.578Z,96.91
2023-11-15T07:20:15.536Z,97.02
2023-11-15T07:21:15.479Z,96.81
2023-11-15T07:22:15.478Z,96.81
2023-11-15T07:23:15.460Z,96.91
2023-11-15T07:24:15.519Z,96.97
2023-11-15T07:25:15.460Z,97.02
2023-11-15T07:26:15.452Z,96.91
2023-11-15T07:27:15.416Z,96.87
2023-11-15T07:28:15.397Z,96.97
2023-11-15T07:29:15.416Z,96.77
2023-11-15T07:30:15.679Z,96.91
2023-11-15T07:31:15.440Z,97.02
2023-11-15T07:32:15.369Z,96.77
2023-11-15T07:33:15.457Z,96.81
2023-11-15T07:34:15.348Z,96.87
2023-11-15T07:35:15.324Z,96.77
2023-11-15T07:36:15.309Z,96.97
2023-11-15T07:37:15.380Z,96.87
2023-11-15T07:38:15.385Z,96.97
2023-11-15T07:39:15.364Z,96.77
2023-11-15T07:40:15.312Z,96.87
2023-11-15T07:41:15.269Z,96.87
2023-11-15T07:42:15.288Z,96.87
2023-11-15T07:43:15.332Z,96.97
2023-11-15T07:44:15.218Z,96.97
2023-11-15T07:45:15.231Z,96.87
2023-11-15T07:46:15.245Z,96.87
2023-11-15T07:47:15.209Z,96.97
2023-11-15T07:48:15.229Z,96.87
2023-11-15T07:49:15.191Z,96.87
2023-11-15T07:50:15.151Z,97.17
2023-11-15T07:51:15.195Z,96.91
2023-11-15T07:52:15.150Z,96.91
2023-11-15T07:53:15.121Z,96.91
2023-11-15T07:54:16.489Z,96.91
2023-11-15T07:55:15.098Z,96.87
2023-11-15T07:56:15.083Z,96.97
2023-11-15T07:57:15.129Z,97.17
2023-11-15T07:58:15.148Z,96.87
2023-11-15T07:59:15.053Z,97.17
2023-11-15T08:00:16.052Z,96.97
2023-11-15T08:01:15.063Z,96.97
2023-11-15T08:02:15.077Z,96.77
2023-11-15T08:03:15.148Z,96.97
2023-11-15T08:04:15.404Z,96.87
2023-11-15T08:05:15.001Z,96.87
2023-11-15T08:06:15.013Z,96.87
2023-11-15T08:07:14.967Z,97.17
2023-11-15T08:08:14.953Z,96.87
2023-11-15T08:09:16.509Z,96.87
2023-11-15T08:10:15.645Z,96.87
2023-11-15T08:11:17.087Z,97.07
2023-11-15T08:12:14.920Z,96.77
2023-11-15T08:13:14.889Z,97.17
2023-11-15T08:14:14.903Z,96.87
2023-11-15T08:15:14.905Z,96.77
2023-11-15T08:16:14.884Z,96.87
2023-11-15T08:17:14.908Z,96.97
2023-11-15T08:18:14.923Z,96.77
2023-11-15T08:19:14.863Z,97.17
2023-11-15T08:20:14.829Z,96.77
2023-11-15T08:21:14.834Z,97.17
2023-11-15T08:22:14.784Z,96.87
2023-11-15T08:23:14.783Z,96.82
2023-11-15T08:24:14.766Z,96.87
2023-11-15T08:25:14.783Z,96.77
2023-11-15T08:26:14.739Z,96.97
2023-11-15T08:27:14.770Z,96.87
2023-11-15T08:28:14.733Z,96.87
2023-11-15T08:29:14.742Z,96.87
2023-11-15T08:30:14.800Z,96.87
2023-11-15T08:31:14.708Z,96.92
2023-11-15T08:32:14.676Z,96.97
2023-11-15T08:33:14.822Z,96.77
2023-11-15T08:34:15.187Z,96.87
2023-11-15T08:35:14.805Z,96.97
2023-11-15T08:36:14.662Z,96.97
2023-11-15T08:37:14.632Z,96.56
2023-11-15T08:38:14.604Z,96.97
2023-11-15T08:39:14.622Z,96.97
2023-11-15T08:40:22.996Z,96.56
2023-11-15T08:41:15.609Z,96.87
2023-11-15T08:42:14.582Z,96.87
2023-11-15T08:43:14.571Z,96.66
2023-11-15T08:44:14.594Z,96.62
2023-11-15T08:45:14.615Z,96.72
2023-11-15T08:46:14.577Z,96.62
2023-11-15T08:47:14.625Z,96.82
2023-11-15T08:48:14.628Z,96.78
2023-11-15T08:49:15.190Z,96.67
2023-11-15T08:50:14.467Z,96.73
2023-11-15T08:51:14.477Z,96.63
2023-11-15T08:52:14.462Z,96.73
2023-11-15T08:53:14.447Z,96.73
2023-11-15T08:54:14.438Z,96.53
2023-11-15T08:55:14.416Z,97.04
2023-11-15T08:56:14.399Z,96.73
2023-11-15T08:57:14.444Z,96.83
2023-11-15T08:58:14.385Z,96.73
2023-11-15T08:59:14.366Z,96.67
2023-11-15T09:00:14.998Z,96.67
2023-11-15T09:01:14.403Z,96.57
2023-11-15T09:02:14.358Z,96.26
2023-11-15T09:03:14.416Z,96.26
2023-11-15T09:04:14.862Z,96.00
2023-11-15T09:05:14.297Z,96.41
2023-11-15T09:06:14.335Z,96.31
2023-11-15T09:07:14.308Z,96.20
2023-11-15T09:08:15.026Z,96.20
2023-11-15T09:09:14.277Z,96.00
2023-11-15T09:10:14.252Z,96.51
2023-11-15T09:11:14.246Z,96.20
2023-11-15T09:12:14.282Z,96.10
2023-11-15T09:13:14.208Z,96.04
2023-11-15T09:14:14.218Z,96.25
2023-11-15T09:15:14.661Z,96.25
2023-11-15T09:16:14.193Z,96.20
2023-11-15T09:17:14.158Z,95.94
2023-11-15T09:18:14.241Z,96.04
2023-11-15T09:19:14.153Z,96.15
2023-11-15T09:20:14.171Z,95.94
2023-11-15T09:21:14.152Z,96.15
2023-11-15T09:22:14.111Z,96.25
2023-11-15T09:23:22.288Z,95.94
2023-11-15T09:24:15.105Z,95.94
2023-11-15T09:25:14.077Z,96.04
2023-11-15T09:26:14.139Z,95.84
2023-11-15T09:27:16.738Z,96.15
2023-11-15T09:28:14.034Z,96.40
2023-11-15T09:29:14.054Z,96.19
2023-11-15T09:30:14.040Z,96.09
2023-11-15T09:31:14.017Z,96.40
2023-11-15T09:32:14.001Z,96.19
2023-11-15T09:33:14.083Z,96.19
2023-11-15T09:34:14.120Z,96.09
2023-11-15T09:35:13.966Z,96.19
2023-11-15T09:36:14.081Z,96.19
2023-11-15T09:37:13.949Z,96.15
2023-11-15T09:38:14.540Z,96.19
2023-11-15T09:39:13.945Z,96.30
2023-11-15T09:40:15.158Z,96.09
2023-11-15T09:41:14.516Z,96.19
2023-11-15T09:42:13.873Z,96.25
2023-11-15T09:43:13.869Z,96.30
2023-11-15T09:44:14.178Z,96.15
2023-11-15T09:45:13.876Z,96.25
2023-11-15T09:46:14.180Z,96.10
2023-11-15T09:47:13.855Z,96.15
2023-11-15T09:48:13.861Z,96.00
2023-11-15T09:49:14.018Z,96.20
2023-11-15T09:50:13.804Z,95.90
2023-11-15T09:51:13.800Z,96.16
2023-11-15T09:52:16.536Z,95.95
2023-11-15T09:53:14.030Z,96.06
2023-11-15T09:54:18.222Z,96.26
2023-11-15T09:55:14.783Z,95.86
2023-11-15T09:56:13.743Z,96.26
2023-11-15T09:57:13.721Z,96.26
2023-11-15T09:58:13.718Z,95.75
2023-11-15T09:59:13.695Z,95.75
2023-11-15T10:00:19.827Z,95.65
2023-11-15T10:01:14.765Z,95.75
2023-11-15T10:02:13.710Z,95.44
2023-11-15T10:03:13.745Z,95.65
2023-11-15T10:04:13.628Z,95.75
2023-11-15T10:05:15.431Z,95.95
2023-11-15T10:06:13.725Z,95.65
2023-11-15T10:07:13.856Z,95.90
2023-11-15T10:08:13.623Z,95.44
2023-11-15T10:09:13.586Z,95.79
2023-11-15T10:10:13.575Z,95.59
2023-11-15T10:11:13.563Z,95.90
2023-11-15T10:12:13.668Z,95.59
2023-11-15T10:13:13.526Z,95.49
2023-11-15T10:14:13.529Z,95.49
2023-11-15T10:15:13.543Z,95.90
2023-11-15T10:16:13.551Z,95.90
2023-11-15T10:17:13.498Z,95.90
2023-11-15T10:18:13.509Z,96.06
2023-11-15T10:19:13.831Z,95.75
2023-11-15T10:20:13.482Z,95.54
2023-11-15T10:21:13.576Z,95.44
2023-11-15T10:22:13.470Z,96.06
2023-11-15T10:23:13.503Z,95.86
2023-11-15T10:24:13.503Z,95.44
2023-11-15T10:25:13.420Z,95.54
2023-11-15T10:26:13.447Z,95.44
2023-11-15T10:27:13.391Z,95.50
2023-11-15T10:28:13.356Z,95.09
2023-11-15T10:29:13.367Z,95.20
2023-11-15T10:30:13.398Z,95.15
2023-11-15T10:31:13.356Z,95.40
2023-11-15T10:32:13.326Z,95.61
2023-11-15T10:33:13.377Z,95.46
2023-11-15T10:34:18.468Z,95.15
2023-11-15T10:35:14.294Z,95.50
2023-11-15T10:36:13.381Z,95.46
2023-11-15T10:37:13.256Z,95.46
2023-11-15T10:38:13.262Z,95.29
2023-11-15T10:39:13.282Z,95.25
2023-11-15T10:40:13.254Z,95.15
2023-11-15T10:41:13.210Z,95.25
2023-11-15T10:42:13.206Z,95.36
2023-11-15T10:43:13.223Z,95.46
2023-11-15T10:44:13.184Z,95.50
2023-11-15T10:45:13.200Z,95.36
2023-11-15T10:46:13.210Z,95.50
2023-11-15T10:47:13.146Z,95.46
2023-11-15T10:48:13.258Z,95.46
2023-11-15T10:49:13.142Z,95.46
2023-11-15T10:50:13.140Z,95.36
2023-11-15T10:51:13.165Z,95.76
2023-11-15T10:52:13.089Z,95.70
2023-11-15T10:53:13.091Z,95.46
2023-11-15T10:54:13.109Z,95.50
2023-11-15T10:55:13.055Z,95.50
2023-11-15T10:56:13.047Z,95.40
2023-11-15T10:57:13.096Z,95.50
2023-11-15T10:58:13.097Z,95.61
2023-11-15T10:59:13.049Z,95.86
2023-11-15T11:00:13.591Z,95.65
2023-11-15T11:01:12.989Z,95.34
2023-11-15T11:02:13.058Z,95.86
2023-11-15T11:03:13.041Z,95.44
2023-11-15T11:04:13.247Z,95.54
2023-11-15T11:05:12.940Z,95.59
2023-11-15T11:06:12.995Z,95.54
2023-11-15T11:07:12.952Z,95.69
2023-11-15T11:08:12.944Z,95.90
2023-11-15T11:09:12.941Z,95.69
2023-11-15T11:10:12.905Z,95.59
2023-11-15T11:11:12.871Z,95.79
2023-11-15T11:12:13.112Z,95.90
2023-11-15T11:13:12.865Z,95.49
2023-11-15T11:14:12.837Z,95.69
2023-11-15T11:15:12.901Z,95.49
2023-11-15T11:16:17.027Z,95.28
2023-11-15T11:17:13.831Z,95.69
2023-11-15T11:18:13.620Z,95.94
2023-11-15T11:19:12.837Z,95.94
2023-11-15T11:20:12.778Z,95.64
2023-11-15T11:21:12.789Z,95.64
2023-11-15T11:22:12.783Z,95.32
2023-11-15T11:23:12.980Z,95.28
2023-11-15T11:24:12.766Z,95.79
2023-11-15T11:25:12.714Z,95.53
2023-11-15T11:26:12.718Z,95.32
2023-11-15T11:27:12.802Z,95.74
2023-11-15T11:28:12.694Z,96.04
2023-11-15T11:29:12.678Z,96.04
2023-11-15T11:30:14.200Z,95.74
2023-11-15T11:31:12.665Z,95.64
2023-11-15T11:32:12.657Z,95.74
2023-11-15T11:33:13.591Z,95.94
2023-11-15T11:34:12.650Z,95.84
2023-11-15T11:35:12.601Z,96.15
2023-11-15T11:36:12.631Z,95.74
2023-11-15T11:37:12.609Z,95.94
2023-11-15T11:38:12.563Z,95.49
2023-11-15T11:39:12.582Z,96.10
2023-11-15T11:40:12.577Z,96.00
2023-11-15T11:41:12.545Z,95.94
2023-11-15T11:42:13.302Z,96.00
2023-11-15T11:43:12.563Z,95.74
2023-11-15T11:44:12.504Z,96.15
2023-11-15T11:45:12.502Z,96.04
2023-11-15T11:46:12.548Z,96.04
2023-11-15T11:47:12.476Z,95.74
2023-11-15T11:48:12.968Z,95.74
2023-11-15T11:49:12.441Z,95.78
2023-11-15T11:50:12.463Z,95.94
2023-11-15T11:51:12.471Z,95.94
2023-11-15T11:52:12.441Z,95.64
2023-11-15T11:53:15.031Z,95.89
2023-11-15T11:54:13.000Z,95.89
2023-11-15T11:55:12.389Z,95.64
2023-11-15T11:56:12.363Z,95.84
2023-11-15T11:57:12.390Z,95.57
2023-11-15T11:58:12.355Z,95.53
2023-11-15T11:59:12.365Z,95.68
2023-11-15T12:00:13.382Z,95.57
2023-11-15T12:01:12.335Z,95.27
2023-11-15T12:02:12.293Z,95.47
2023-11-15T12:03:16.471Z,95.43
2023-11-15T12:04:13.455Z,95.57
2023-11-15T12:05:12.279Z,95.53
2023-11-15T12:06:12.497Z,95.43
2023-11-15T12:07:12.269Z,95.68
2023-11-15T12:08:19.177Z,95.64
2023-11-15T12:09:12.248Z,95.78
2023-11-15T12:10:13.285Z,95.64
2023-11-15T12:11:12.191Z,96.04
2023-11-15T12:12:12.227Z,95.94
2023-11-15T12:13:12.234Z,95.94
2023-11-15T12:14:12.255Z,95.59
2023-11-15T12:15:12.181Z,95.74
2023-11-15T12:16:12.160Z,95.84
2023-11-15T12:17:12.149Z,95.64
2023-11-15T12:18:12.205Z,95.02
2023-11-15T12:19:12.112Z,94.92
2023-11-15T12:20:12.159Z,94.92
2023-11-15T12:21:12.120Z,94.92
2023-11-15T12:22:12.115Z,95.32
2023-11-15T12:23:12.266Z,95.43
2023-11-15T12:24:12.062Z,95.79
2023-11-15T12:25:12.072Z,95.84
2023-11-15T12:26:12.096Z,95.79
2023-11-15T12:27:12.024Z,95.74
2023-11-15T12:28:12.007Z,95.59
2023-11-15T12:29:12.008Z,95.53
2023-11-15T12:30:12.100Z,95.74
2023-11-15T12:31:11.999Z,95.64
2023-11-15T12:32:11.981Z,95.53
2023-11-15T12:33:12.007Z,95.64
2023-11-15T12:34:12.266Z,95.74
2023-11-15T12:35:11.922Z,95.64
2023-11-15T12:36:11.932Z,95.84
2023-11-15T12:37:11.905Z,95.23
2023-11-15T12:38:11.884Z,95.27
2023-11-15T12:39:11.924Z,95.68
2023-11-15T12:40:11.876Z,95.74
2023-11-15T12:41:11.847Z,95.94
2023-11-15T12:42:11.853Z,95.98
2023-11-15T12:43:11.833Z,95.57
2023-11-15T12:44:11.820Z,95.84
2023-11-15T12:45:11.896Z,95.64
2023-11-15T12:46:11.859Z,95.53
2023-11-15T12:47:12.009Z,95.74
2023-11-15T12:48:11.959Z,95.53
2023-11-15T12:49:11.753Z,95.74
2023-11-15T12:50:11.743Z,95.79
2023-11-15T12:51:11.760Z,95.79
2023-11-15T12:52:11.765Z,94.67